メインページ
METAR-TAF:

METAR-TAF

空港 :

カシディー国際空港

キリスィマスィ島, キリバス

緯度: 01-59N, 経度: 157-29W, 海抜: 3m

現時点の気象観測

当レポートは36分前の03:00(UTC)に作成
北東の風 6kt
気温 28°C
湿度 89%
気圧 1005 hPa
視程10km以上
高度1800ftの雲はほとんどない, 塔状積雲.
高度2000ftの雲は散在している

METAR: PLCH 200300Z 04006KT 9999 FEW018TCU SCT020 28/26 Q1005

時間: 17:36 (03:36 UTC)

予報

当レポートは4時間17分前の23:19(UTC)に作成
予報は20日の 00時(UTC)から 20日の 24時(UTC)まで有効
東/北東の風 5kt
視程10km以上
高度1800ftの雲は散在している
高度10000ftの雲は散在している
確率 30% :
20日の 10時(UTC)から 20日の 20時(UTC)まで一時的に
視程: 5000m
高度1800ftの雲はほとんどない, 積乱雲.
激しい雷雨, 雨

TAF: PLCH 192319Z 2000/2024 06005KT 9999 SCT018 SCT100 PROB30 TEMPO 2010/2020 5000 TSRA FEW018CB

4,000以上の空港の気象観測と天気予報(METAR報とTAF報)

利用可能な観測所は地図上に黄色い丸と赤い丸で示す。

丸の上にカーソルを重ねると観測所名を参照できる。

次にクリックすると気象観測と天気予報を参照できる。

マップの切り替え:黒色「×」印の緑ボタンをクリックして拡大、「-」印の緑ボタンをクリックして縮小、緑色の三角印をクリックして隣りの地図に切り替え


METAR-TAF: